sensor_id;sensor_type;location;lat;lon;timestamp;pressure;altitude;pressure_sealevel;temperature;humidity
4273;BME280;63887;53.656;9.810;2022-12-10T00:00:40;101022.72;;;-0.35;94.35
4273;BME280;63887;53.656;9.810;2022-12-10T00:03:06;101020.13;;;-0.35;94.33
4273;BME280;63887;53.656;9.810;2022-12-10T00:05:33;101029.66;;;-0.43;94.10
4273;BME280;63887;53.656;9.810;2022-12-10T00:08:00;101025.28;;;-0.35;93.24
4273;BME280;63887;53.656;9.810;2022-12-10T00:10:27;101027.94;;;-0.44;93.30
4273;BME280;63887;53.656;9.810;2022-12-10T00:12:53;101025.34;;;-0.47;92.96
4273;BME280;63887;53.656;9.810;2022-12-10T00:15:19;101026.22;;;-0.48;93.45
4273;BME280;63887;53.656;9.810;2022-12-10T00:17:46;101020.19;;;-0.44;93.27
4273;BME280;63887;53.656;9.810;2022-12-10T00:20:12;101027.03;;;-0.39;92.43
4273;BME280;63887;53.656;9.810;2022-12-10T00:22:39;101030.47;;;-0.38;93.16
4273;BME280;63887;53.656;9.810;2022-12-10T00:25:07;101022.72;;;-0.35;91.57
4273;BME280;63887;53.656;9.810;2022-12-10T00:27:33;101029.63;;;-0.40;92.03
4273;BME280;63887;53.656;9.810;2022-12-10T00:29:59;101024.47;;;-0.42;90.70
4273;BME280;63887;53.656;9.810;2022-12-10T00:32:26;101030.50;;;-0.49;92.02
4273;BME280;63887;53.656;9.810;2022-12-10T00:34:52;101033.91;;;-0.41;90.98
4273;BME280;63887;53.656;9.810;2022-12-10T00:37:18;101030.50;;;-0.43;92.08
4273;BME280;63887;53.656;9.810;2022-12-10T00:39:44;101027.91;;;-0.41;91.53
4273;BME280;63887;53.656;9.810;2022-12-10T00:42:12;101034.75;;;-0.36;91.79
4273;BME280;63887;53.656;9.810;2022-12-10T00:44:38;101027.00;;;-0.34;90.04
4273;BME280;63887;53.656;9.810;2022-12-10T00:47:05;101030.44;;;-0.29;89.20
4273;BME280;63887;53.656;9.810;2022-12-10T00:49:31;101033.03;;;-0.35;89.47
4273;BME280;63887;53.656;9.810;2022-12-10T00:51:57;101038.19;;;-0.38;90.16
4273;BME280;63887;53.656;9.810;2022-12-10T00:54:24;101035.63;;;-0.40;89.58
4273;BME280;63887;53.656;9.810;2022-12-10T00:56:50;101028.78;;;-0.44;90.14
4273;BME280;63887;53.656;9.810;2022-12-10T00:59:18;101033.03;;;-0.35;90.30
4273;BME280;63887;53.656;9.810;2022-12-10T01:01:44;101026.09;;;-0.30;89.32
4273;BME280;63887;53.656;9.810;2022-12-10T01:04:11;101037.31;;;-0.36;89.75
4273;BME280;63887;53.656;9.810;2022-12-10T01:06:40;101031.34;;;-0.42;90.36
4273;BME280;63887;53.656;9.810;2022-12-10T01:09:07;101033.06;;;-0.47;91.27
4273;BME280;63887;53.656;9.810;2022-12-10T01:11:34;101039.06;;;-0.45;91.33
4273;BME280;63887;53.656;9.810;2022-12-10T01:14:02;101045.94;;;-0.46;91.50
4273;BME280;63887;53.656;9.810;2022-12-10T01:16:30;101045.09;;;-0.42;91.79
4273;BME280;63887;53.656;9.810;2022-12-10T01:18:56;101039.94;;;-0.43;91.35
4273;BME280;63887;53.656;9.810;2022-12-10T01:21:25;101047.66;;;-0.42;91.54
4273;BME280;63887;53.656;9.810;2022-12-10T01:23:52;101046.81;;;-0.42;91.05
4273;BME280;63887;53.656;9.810;2022-12-10T01:26:20;101047.66;;;-0.42;90.17
4273;BME280;63887;53.656;9.810;2022-12-10T01:28:46;101051.13;;;-0.43;92.53
4273;BME280;63887;53.656;9.810;2022-12-10T01:31:13;101058.84;;;-0.44;92.35
4273;BME280;63887;53.656;9.810;2022-12-10T01:33:42;101053.66;;;-0.40;92.30
4273;BME280;63887;53.656;9.810;2022-12-10T01:36:10;101054.53;;;-0.39;91.78
4273;BME280;63887;53.656;9.810;2022-12-10T01:38:37;101047.66;;;-0.40;92.96
4273;BME280;63887;53.656;9.810;2022-12-10T01:41:04;101048.47;;;-0.34;91.59
4273;BME280;63887;53.656;9.810;2022-12-10T01:46:12;101054.53;;;-0.41;92.20
4273;BME280;63887;53.656;9.810;2022-12-10T01:48:38;101063.13;;;-0.42;92.13
4273;BME280;63887;53.656;9.810;2022-12-10T01:51:06;101065.72;;;-0.42;92.79
4273;BME280;63887;53.656;9.810;2022-12-10T01:53:32;101069.13;;;-0.38;93.54
4273;BME280;63887;53.656;9.810;2022-12-10T01:55:59;101065.72;;;-0.42;92.51
4273;BME280;63887;53.656;9.810;2022-12-10T01:58:25;101069.13;;;-0.38;93.50
4273;BME280;63887;53.656;9.810;2022-12-10T02:00:55;101074.28;;;-0.41;92.71
4273;BME280;63887;53.656;9.810;2022-12-10T02:03:25;101078.59;;;-0.42;92.36
4273;BME280;63887;53.656;9.810;2022-12-10T02:05:57;101076.00;;;-0.45;91.61
4273;BME280;63887;53.656;9.810;2022-12-10T02:08:26;101074.28;;;-0.40;91.42
4273;BME280;63887;53.656;9.810;2022-12-10T02:10:58;101076.88;;;-0.43;91.18
4273;BME280;63887;53.656;9.810;2022-12-10T02:13:26;101072.53;;;-0.36;91.02
4273;BME280;63887;53.656;9.810;2022-12-10T02:15:56;101076.88;;;-0.40;92.81
4273;BME280;63887;53.656;9.810;2022-12-10T02:18:25;101070.03;;;-0.44;92.38
4273;BME280;63887;53.656;9.810;2022-12-10T02:20:53;101075.16;;;-0.47;92.48
4273;BME280;63887;53.656;9.810;2022-12-10T02:23:30;101066.59;;;-0.44;91.81
4273;BME280;63887;53.656;9.810;2022-12-10T02:26:01;101071.72;;;-0.43;90.92
4273;BME280;63887;53.656;9.810;2022-12-10T02:28:31;101077.75;;;-0.47;90.08
4273;BME280;63887;53.656;9.810;2022-12-10T02:31:01;101081.16;;;-0.46;91.56
4273;BME280;63887;53.656;9.810;2022-12-10T02:33:27;101072.63;;;-0.51;90.74
4273;BME280;63887;53.656;9.810;2022-12-10T02:35:55;101082.03;;;-0.49;92.27
4273;BME280;63887;53.656;9.810;2022-12-10T02:38:24;101082.06;;;-0.52;90.68
4273;BME280;63887;53.656;9.810;2022-12-10T02:40:53;101077.75;;;-0.51;90.11
4273;BME280;63887;53.656;9.810;2022-12-10T02:43:21;101074.31;;;-0.50;90.42
4273;BME280;63887;53.656;9.810;2022-12-10T02:45:48;101079.53;;;-0.58;90.45
4273;BME280;63887;53.656;9.810;2022-12-10T02:48:17;101085.47;;;-0.47;91.15
4273;BME280;63887;53.656;9.810;2022-12-10T02:50:44;101079.50;;;-0.52;91.62
4273;BME280;63887;53.656;9.810;2022-12-10T02:53:11;101086.31;;;-0.45;92.39
4273;BME280;63887;53.656;9.810;2022-12-10T02:55:41;101082.03;;;-0.49;91.82
4273;BME280;63887;53.656;9.810;2022-12-10T02:58:14;101085.47;;;-0.47;91.92
4273;BME280;63887;53.656;9.810;2022-12-10T03:00:43;101089.75;;;-0.41;91.00
4273;BME280;63887;53.656;9.810;2022-12-10T03:03:28;101083.75;;;-0.48;90.53
4273;BME280;63887;53.656;9.810;2022-12-10T03:05:59;101085.44;;;-0.38;91.39
4273;BME280;63887;53.656;9.810;2022-12-10T03:08:30;101086.34;;;-0.43;90.34
4273;BME280;63887;53.656;9.810;2022-12-10T03:10:59;101082.00;;;-0.40;91.23
4273;BME280;63887;53.656;9.810;2022-12-10T03:13:28;101090.63;;;-0.47;91.84
4273;BME280;63887;53.656;9.810;2022-12-10T03:15:55;101088.09;;;-0.54;92.23
4273;BME280;63887;53.656;9.810;2022-12-10T03:18:23;101092.38;;;-0.55;92.21
4273;BME280;63887;53.656;9.810;2022-12-10T03:20:52;101091.53;;;-0.55;92.50
4273;BME280;63887;53.656;9.810;2022-12-10T03:23:20;101098.38;;;-0.50;93.23
4273;BME280;63887;53.656;9.810;2022-12-10T03:25:47;101092.34;;;-0.43;92.06
4273;BME280;63887;53.656;9.810;2022-12-10T03:28:14;101090.59;;;-0.45;92.09
4273;BME280;63887;53.656;9.810;2022-12-10T03:30:41;101091.50;;;-0.43;91.52
4273;BME280;63887;53.656;9.810;2022-12-10T03:33:08;101094.09;;;-0.52;90.21
4273;BME280;63887;53.656;9.810;2022-12-10T03:35:35;101094.09;;;-0.52;90.19
4273;BME280;63887;53.656;9.810;2022-12-10T03:38:03;101094.09;;;-0.52;90.31
4273;BME280;63887;53.656;9.810;2022-12-10T03:40:29;101100.97;;;-0.53;92.52
4273;BME280;63887;53.656;9.810;2022-12-10T03:42:56;101099.25;;;-0.60;92.68
4273;BME280;63887;53.656;9.810;2022-12-10T03:45:22;101088.09;;;-0.54;91.74
4273;BME280;63887;53.656;9.810;2022-12-10T03:47:48;101091.50;;;-0.51;92.05
4273;BME280;63887;53.656;9.810;2022-12-10T03:50:15;101093.22;;;-0.53;92.11
4273;BME280;63887;53.656;9.810;2022-12-10T03:52:41;101095.78;;;-0.50;91.40
4273;BME280;63887;53.656;9.810;2022-12-10T03:55:09;101094.91;;;-0.47;90.89
4273;BME280;63887;53.656;9.810;2022-12-10T03:57:35;101097.50;;;-0.50;89.83
4273;BME280;63887;53.656;9.810;2022-12-10T04:00:02;101091.53;;;-0.55;91.34
4273;BME280;63887;53.656;9.810;2022-12-10T04:02:29;101090.63;;;-0.44;91.41
4273;BME280;63887;53.656;9.810;2022-12-10T04:04:55;101092.34;;;-0.50;92.01
4273;BME280;63887;53.656;9.810;2022-12-10T04:07:21;101094.09;;;-0.52;91.91
4273;BME280;63887;53.656;9.810;2022-12-10T04:09:48;101086.34;;;-0.51;90.91
4273;BME280;63887;53.656;9.810;2022-12-10T04:12:15;101084.63;;;-0.47;90.64
4273;BME280;63887;53.656;9.810;2022-12-10T04:14:42;101082.88;;;-0.45;90.89
4273;BME280;63887;53.656;9.810;2022-12-10T04:17:25;101090.63;;;-0.41;91.55
4273;BME280;63887;53.656;9.810;2022-12-10T04:19:52;101082.88;;;-0.47;91.67
4273;BME280;63887;53.656;9.810;2022-12-10T04:22:18;101085.50;;;-0.53;92.55
4273;BME280;63887;53.656;9.810;2022-12-10T04:25:02;101081.22;;;-0.54;91.56
4273;BME280;63887;53.656;9.810;2022-12-10T04:27:50;101089.75;;;-0.46;91.30
4273;BME280;63887;53.656;9.810;2022-12-10T04:30:16;101082.94;;;-0.54;91.42
4273;BME280;63887;53.656;9.810;2022-12-10T04:32:42;101077.72;;;-0.41;92.35
4273;BME280;63887;53.656;9.810;2022-12-10T04:35:09;101073.44;;;-0.40;90.91
4273;BME280;63887;53.656;9.810;2022-12-10T04:37:35;101070.88;;;-0.46;91.54
4273;BME280;63887;53.656;9.810;2022-12-10T04:40:01;101078.63;;;-0.51;91.68
4273;BME280;63887;53.656;9.810;2022-12-10T04:42:28;101082.03;;;-0.49;91.37
4273;BME280;63887;53.656;9.810;2022-12-10T04:44:56;101084.63;;;-0.47;92.13
4273;BME280;63887;53.656;9.810;2022-12-10T04:47:22;101085.47;;;-0.48;91.06
4273;BME280;63887;53.656;9.810;2022-12-10T04:49:48;101085.47;;;-0.47;92.09
4273;BME280;63887;53.656;9.810;2022-12-10T04:52:15;101088.91;;;-0.46;92.28
4273;BME280;63887;53.656;9.810;2022-12-10T04:54:42;101085.50;;;-0.50;89.64
4273;BME280;63887;53.656;9.810;2022-12-10T04:57:09;101094.91;;;-0.43;90.14
4273;BME280;63887;53.656;9.810;2022-12-10T04:59:35;101088.97;;;-0.58;91.05
4273;BME280;63887;53.656;9.810;2022-12-10T05:02:03;101092.34;;;-0.49;90.50
4273;BME280;63887;53.656;9.810;2022-12-10T05:04:29;101102.69;;;-0.52;90.61
4273;BME280;63887;53.656;9.810;2022-12-10T05:06:56;101097.53;;;-0.52;88.96
4273;BME280;63887;53.656;9.810;2022-12-10T05:09:22;101088.94;;;-0.51;88.69
4273;BME280;63887;53.656;9.810;2022-12-10T05:11:48;101091.47;;;-0.48;87.50
4273;BME280;63887;53.656;9.810;2022-12-10T05:14:15;101090.63;;;-0.44;87.58
4273;BME280;63887;53.656;9.810;2022-12-10T05:16:41;101095.78;;;-0.44;88.38
4273;BME280;63887;53.656;9.810;2022-12-10T05:19:09;101085.50;;;-0.50;88.60
4273;BME280;63887;53.656;9.810;2022-12-10T05:21:36;101089.81;;;-0.53;90.26
4273;BME280;63887;53.656;9.810;2022-12-10T05:24:20;101088.94;;;-0.51;90.47
4273;BME280;63887;53.656;9.810;2022-12-10T05:26:46;101087.19;;;-0.49;89.96
4273;BME280;63887;53.656;9.810;2022-12-10T05:29:15;101092.31;;;-0.38;90.98
4273;BME280;63887;53.656;9.810;2022-12-10T05:31:42;101091.47;;;-0.46;89.30
4273;BME280;63887;53.656;9.810;2022-12-10T05:34:10;101092.31;;;-0.38;90.06
4273;BME280;63887;53.656;9.810;2022-12-10T05:36:36;101084.63;;;-0.44;89.35
4273;BME280;63887;53.656;9.810;2022-12-10T05:39:03;101092.34;;;-0.47;87.93
4273;BME280;63887;53.656;9.810;2022-12-10T05:41:30;101092.34;;;-0.46;89.81
4273;BME280;63887;53.656;9.810;2022-12-10T05:43:57;101090.66;;;-0.53;91.04
4273;BME280;63887;53.656;9.810;2022-12-10T05:46:24;101086.31;;;-0.46;90.13
4273;BME280;63887;53.656;9.810;2022-12-10T05:48:51;101094.09;;;-0.51;88.44
4273;BME280;63887;53.656;9.810;2022-12-10T05:51:20;101090.63;;;-0.50;87.50
4273;BME280;63887;53.656;9.810;2022-12-10T05:53:46;101095.78;;;-0.47;87.86
4273;BME280;63887;53.656;9.810;2022-12-10T05:56:14;101093.19;;;-0.47;87.88
4273;BME280;63887;53.656;9.810;2022-12-10T05:58:41;101097.47;;;-0.40;87.15
4273;BME280;63887;53.656;9.810;2022-12-10T06:01:08;101094.91;;;-0.40;86.29
4273;BME280;63887;53.656;9.810;2022-12-10T06:03:35;101098.38;;;-0.44;88.36
4273;BME280;63887;53.656;9.810;2022-12-10T06:06:01;101097.50;;;-0.43;89.48
4273;BME280;63887;53.656;9.810;2022-12-10T06:08:29;101098.34;;;-0.42;88.33
4273;BME280;63887;53.656;9.810;2022-12-10T06:10:56;101101.75;;;-0.37;88.83
4273;BME280;63887;53.656;9.810;2022-12-10T06:13:23;101098.34;;;-0.42;89.77
4273;BME280;63887;53.656;9.810;2022-12-10T06:15:49;101104.38;;;-0.48;87.73
4273;BME280;63887;53.656;9.810;2022-12-10T06:18:15;101108.66;;;-0.44;87.62
4273;BME280;63887;53.656;9.810;2022-12-10T06:20:42;101108.66;;;-0.47;87.70
4273;BME280;63887;53.656;9.810;2022-12-10T06:23:08;101107.81;;;-0.44;88.38
4273;BME280;63887;53.656;9.810;2022-12-10T06:25:37;101107.78;;;-0.41;87.72
4273;BME280;63887;53.656;9.810;2022-12-10T06:28:03;101111.19;;;-0.35;89.10
4273;BME280;63887;53.656;9.810;2022-12-10T06:30:30;101111.25;;;-0.42;86.88
4273;BME280;63887;53.656;9.810;2022-12-10T06:32:56;101111.19;;;-0.35;85.34
4273;BME280;63887;53.656;9.810;2022-12-10T06:35:22;101114.63;;;-0.34;86.07
4273;BME280;63887;53.656;9.810;2022-12-10T06:37:49;101116.31;;;-0.32;86.95
4273;BME280;63887;53.656;9.810;2022-12-10T06:40:15;101117.19;;;-0.33;86.78
4273;BME280;63887;53.656;9.810;2022-12-10T06:42:43;101111.13;;;-0.15;84.40
4273;BME280;63887;53.656;9.810;2022-12-10T06:45:09;101113.81;;;-0.42;85.03
4273;BME280;63887;53.656;9.810;2022-12-10T06:47:36;101117.22;;;-0.37;85.01
4273;BME280;63887;53.656;9.810;2022-12-10T06:50:02;101122.38;;;-0.37;85.47
4273;BME280;63887;53.656;9.810;2022-12-10T06:52:29;101118.13;;;-0.43;85.86
4273;BME280;63887;53.656;9.810;2022-12-10T06:54:55;101122.38;;;-0.45;86.53
4273;BME280;63887;53.656;9.810;2022-12-10T06:57:22;101126.72;;;-0.44;86.69
4273;BME280;63887;53.656;9.810;2022-12-10T06:59:49;101124.94;;;-0.36;85.32
4273;BME280;63887;53.656;9.810;2022-12-10T07:02:16;101131.00;;;-0.44;86.21
4273;BME280;63887;53.656;9.810;2022-12-10T07:04:42;101136.16;;;-0.43;87.40
4273;BME280;63887;53.656;9.810;2022-12-10T07:07:08;101140.41;;;-0.37;86.68
4273;BME280;63887;53.656;9.810;2022-12-10T07:09:34;101138.72;;;-0.46;86.71
4273;BME280;63887;53.656;9.810;2022-12-10T07:12:01;101141.34;;;-0.53;87.46
4273;BME280;63887;53.656;9.810;2022-12-10T07:14:27;101144.78;;;-0.54;88.28
4273;BME280;63887;53.656;9.810;2022-12-10T07:16:55;101151.63;;;-0.50;87.94
4273;BME280;63887;53.656;9.810;2022-12-10T07:19:21;101150.75;;;-0.46;87.52
4273;BME280;63887;53.656;9.810;2022-12-10T07:21:48;101151.63;;;-0.53;87.86
4273;BME280;63887;53.656;9.810;2022-12-10T07:24:16;101157.66;;;-0.54;88.50
4273;BME280;63887;53.656;9.810;2022-12-10T07:26:43;101157.63;;;-0.47;88.00
4273;BME280;63887;53.656;9.810;2022-12-10T07:29:11;101158.53;;;-0.55;88.71
4273;BME280;63887;53.656;9.810;2022-12-10T07:31:38;101162.69;;;-0.19;85.90
4273;BME280;63887;53.656;9.810;2022-12-10T07:34:06;101162.75;;;-0.36;86.28
4273;BME280;63887;53.656;9.810;2022-12-10T07:36:32;101167.09;;;-0.52;89.25
4273;BME280;63887;53.656;9.810;2022-12-10T07:38:59;101167.06;;;-0.47;88.21
4273;BME280;63887;53.656;9.810;2022-12-10T07:41:25;101173.91;;;-0.29;88.08
4273;BME280;63887;53.656;9.810;2022-12-10T07:43:51;101185.88;;;-0.12;85.62
4273;BME280;63887;53.656;9.810;2022-12-10T07:46:18;101170.38;;;-0.16;85.17
4273;BME280;63887;53.656;9.810;2022-12-10T07:48:45;101173.91;;;-0.29;86.45
4273;BME280;63887;53.656;9.810;2022-12-10T07:51:13;101178.16;;;-0.21;85.73
4273;BME280;63887;53.656;9.810;2022-12-10T07:53:41;101180.72;;;-0.15;85.62
4273;BME280;63887;53.656;9.810;2022-12-10T07:56:08;101181.63;;;-0.29;87.49
4273;BME280;63887;53.656;9.810;2022-12-10T07:58:34;101181.59;;;-0.22;86.32
4273;BME280;63887;53.656;9.810;2022-12-10T08:01:05;101187.53;;;-0.03;86.10
4273;BME280;63887;53.656;9.810;2022-12-10T08:03:31;101184.22;;;-0.28;85.96
4273;BME280;63887;53.656;9.810;2022-12-10T08:06:01;101191.00;;;-0.16;85.19
4273;BME280;63887;53.656;9.810;2022-12-10T08:08:28;101190.13;;;-0.08;85.12
4273;BME280;63887;53.656;9.810;2022-12-10T08:10:55;101196.97;;;-0.04;85.01
4273;BME280;63887;53.656;9.810;2022-12-10T08:13:21;101193.59;;;-0.16;86.04
4273;BME280;63887;53.656;9.810;2022-12-10T08:15:47;101199.59;;;-0.08;85.51
4273;BME280;63887;53.656;9.810;2022-12-10T08:18:13;101197.91;;;-0.14;84.91
4273;BME280;63887;53.656;9.810;2022-12-10T08:20:40;101203.03;;;-0.11;84.88
4273;BME280;63887;53.656;9.810;2022-12-10T08:23:06;101201.34;;;-0.18;85.95
4273;BME280;63887;53.656;9.810;2022-12-10T08:25:33;101199.66;;;-0.23;86.45
4273;BME280;63887;53.656;9.810;2022-12-10T08:28:01;101195.34;;;-0.24;85.17
4273;BME280;63887;53.656;9.810;2022-12-10T08:30:28;101203.97;;;-0.27;86.68
4273;BME280;63887;53.656;9.810;2022-12-10T08:32:54;101213.41;;;-0.23;86.00
4273;BME280;63887;53.656;9.810;2022-12-10T08:35:20;101213.44;;;-0.29;86.37
4273;BME280;63887;53.656;9.810;2022-12-10T08:37:46;101209.97;;;-0.25;85.22
4273;BME280;63887;53.656;9.810;2022-12-10T08:40:13;101215.16;;;-0.40;86.50
4273;BME280;63887;53.656;9.810;2022-12-10T08:42:40;101223.75;;;-0.29;86.26
4273;BME280;63887;53.656;9.810;2022-12-10T08:45:07;101220.28;;;-0.23;85.32
4273;BME280;63887;53.656;9.810;2022-12-10T08:47:33;101220.22;;;-0.10;84.25
4273;BME280;63887;53.656;9.810;2022-12-10T08:50:00;101221.97;;;-0.22;85.13
4273;BME280;63887;53.656;9.810;2022-12-10T08:52:26;101223.72;;;-0.24;85.09
4273;BME280;63887;53.656;9.810;2022-12-10T08:54:54;101227.19;;;-0.28;86.29
4273;BME280;63887;53.656;9.810;2022-12-10T08:57:20;101227.09;;;-0.16;85.08
4273;BME280;63887;53.656;9.810;2022-12-10T08:59:48;101218.56;;;-0.34;86.77
4273;BME280;63887;53.656;9.810;2022-12-10T09:02:14;101230.63;;;-0.29;86.71
4273;BME280;63887;53.656;9.810;2022-12-10T09:04:40;101226.28;;;-0.31;87.47
4273;BME280;63887;53.656;9.810;2022-12-10T09:07:07;101231.50;;;-0.41;87.30
4273;BME280;63887;53.656;9.810;2022-12-10T09:09:33;101225.50;;;-0.52;88.28
4273;BME280;63887;53.656;9.810;2022-12-10T09:12:00;101233.16;;;-0.33;87.94
4273;BME280;63887;53.656;9.810;2022-12-10T09:14:26;101241.78;;;-0.46;87.72
4273;BME280;63887;53.656;9.810;2022-12-10T09:16:54;101241.78;;;-0.40;87.53
4273;BME280;63887;53.656;9.810;2022-12-10T09:19:20;101252.97;;;-0.41;87.57
4273;BME280;63887;53.656;9.810;2022-12-10T09:21:46;101250.38;;;-0.47;88.43
4273;BME280;63887;53.656;9.810;2022-12-10T09:24:13;101250.34;;;-0.22;86.64
4273;BME280;63887;53.656;9.810;2022-12-10T09:26:39;101257.16;;;-0.06;86.44
4273;BME280;63887;53.656;9.810;2022-12-10T09:29:05;101258.94;;;-0.33;87.21
4273;BME280;63887;53.656;9.810;2022-12-10T09:31:32;101259.84;;;-0.53;88.69
4273;BME280;63887;53.656;9.810;2022-12-10T09:33:59;101262.44;;;-0.56;89.35
4273;BME280;63887;53.656;9.810;2022-12-10T09:36:26;101262.44;;;-0.43;88.00
4273;BME280;63887;53.656;9.810;2022-12-10T09:38:52;101265.88;;;-0.53;88.37
4273;BME280;63887;53.656;9.810;2022-12-10T09:41:25;101266.72;;;-0.52;88.46
4273;BME280;63887;53.656;9.810;2022-12-10T09:43:58;101271.00;;;-0.62;89.83
4273;BME280;63887;53.656;9.810;2022-12-10T09:46:31;101265.88;;;-0.56;88.45
4273;BME280;63887;53.656;9.810;2022-12-10T09:49:08;101272.75;;;-0.66;89.26
4273;BME280;63887;53.656;9.810;2022-12-10T09:51:39;101270.19;;;-0.73;90.22
4273;BME280;63887;53.656;9.810;2022-12-10T09:54:19;101272.75;;;-0.73;90.63
4273;BME280;63887;53.656;9.810;2022-12-10T09:56:48;101266.72;;;-0.63;89.32
4273;BME280;63887;53.656;9.810;2022-12-10T09:59:17;101265.03;;;-0.58;89.64
4273;BME280;63887;53.656;9.810;2022-12-10T10:01:45;101264.16;;;-0.68;90.09
4273;BME280;63887;53.656;9.810;2022-12-10T10:04:13;101265.84;;;-0.47;89.56
4273;BME280;63887;53.656;9.810;2022-12-10T10:06:40;101259.84;;;-0.40;88.06
4273;BME280;63887;53.656;9.810;2022-12-10T10:09:06;101259.88;;;-0.56;89.56
4273;BME280;63887;53.656;9.810;2022-12-10T10:11:38;101260.69;;;-0.48;88.20
4273;BME280;63887;53.656;9.810;2022-12-10T10:14:05;101252.94;;;-0.33;87.48
4273;BME280;63887;53.656;9.810;2022-12-10T10:16:33;101252.09;;;-0.37;87.51
4273;BME280;63887;53.656;9.810;2022-12-10T10:19:01;101250.38;;;-0.47;87.88
4273;BME280;63887;53.656;9.810;2022-12-10T10:21:30;101255.56;;;-0.61;88.46
4273;BME280;63887;53.656;9.810;2022-12-10T10:23:59;101251.25;;;-0.63;88.97
4273;BME280;63887;53.656;9.810;2022-12-10T10:26:25;101251.25;;;-0.54;89.31
4273;BME280;63887;53.656;9.810;2022-12-10T10:28:53;101252.94;;;-0.28;86.17
4273;BME280;63887;53.656;9.810;2022-12-10T10:31:23;101252.09;;;-0.27;86.35
4273;BME280;63887;53.656;9.810;2022-12-10T10:33:51;101261.53;;;-0.25;86.25
4273;BME280;63887;53.656;9.810;2022-12-10T10:36:22;101252.97;;;-0.42;87.60
4273;BME280;63887;53.656;9.810;2022-12-10T10:38:50;101256.41;;;-0.39;86.97
4273;BME280;63887;53.656;9.810;2022-12-10T10:41:16;101267.56;;;-0.27;86.61
4273;BME280;63887;53.656;9.810;2022-12-10T10:43:43;101265.00;;;-0.52;87.95
4273;BME280;63887;53.656;9.810;2022-12-10T10:46:11;101263.28;;;-0.54;87.13
4273;BME280;63887;53.656;9.810;2022-12-10T10:48:38;101265.03;;;-0.70;88.75
4273;BME280;63887;53.656;9.810;2022-12-10T10:51:05;101259.03;;;-0.72;89.29
4273;BME280;63887;53.656;9.810;2022-12-10T10:53:33;101268.41;;;-0.33;86.92
4273;BME280;63887;53.656;9.810;2022-12-10T10:56:07;101264.97;;;-0.46;87.62
4273;BME280;63887;53.656;9.810;2022-12-10T10:58:36;101266.72;;;-0.49;88.31
4273;BME280;63887;53.656;9.810;2022-12-10T11:01:03;101263.28;;;-0.54;88.08
4273;BME280;63887;53.656;9.810;2022-12-10T11:03:30;101270.16;;;-0.76;87.98
4273;BME280;63887;53.656;9.810;2022-12-10T11:05:58;101267.59;;;-0.59;88.35
4273;BME280;63887;53.656;9.810;2022-12-10T11:08:26;101271.88;;;-0.83;89.56
4273;BME280;63887;53.656;9.810;2022-12-10T11:10:56;101270.19;;;-0.73;89.00
4273;BME280;63887;53.656;9.810;2022-12-10T11:13:28;101272.75;;;-0.66;87.53
4273;BME280;63887;53.656;9.810;2022-12-10T11:15:56;101273.59;;;-0.70;88.39
4273;BME280;63887;53.656;9.810;2022-12-10T11:18:24;101262.44;;;-0.70;89.35
4273;BME280;63887;53.656;9.810;2022-12-10T11:20:58;101263.31;;;-0.73;88.33
4273;BME280;63887;53.656;9.810;2022-12-10T11:23:26;101262.44;;;-0.75;88.65
4273;BME280;63887;53.656;9.810;2022-12-10T11:25:55;101265.84;;;-0.62;88.57
4273;BME280;63887;53.656;9.810;2022-12-10T11:28:29;101249.56;;;-0.59;87.31
4273;BME280;63887;53.656;9.810;2022-12-10T11:31:00;101246.97;;;-0.61;87.20
4273;BME280;63887;53.656;9.810;2022-12-10T11:33:34;101249.53;;;-0.61;88.07
4273;BME280;63887;53.656;9.810;2022-12-10T11:36:07;101250.41;;;-0.53;86.95
4273;BME280;63887;53.656;9.810;2022-12-10T11:38:38;101238.38;;;-0.52;86.53
4273;BME280;63887;53.656;9.810;2022-12-10T11:41:10;101248.69;;;-0.75;88.10
4273;BME280;63887;53.656;9.810;2022-12-10T11:43:54;101249.56;;;-0.58;87.86
4273;BME280;63887;53.656;9.810;2022-12-10T11:46:27;101242.69;;;-0.67;88.05
4273;BME280;63887;53.656;9.810;2022-12-10T11:49:05;101250.41;;;-0.53;87.96
4273;BME280;63887;53.656;9.810;2022-12-10T11:51:39;101247.81;;;-0.61;88.48
4273;BME280;63887;53.656;9.810;2022-12-10T11:54:20;101246.94;;;-0.46;86.46
4273;BME280;63887;53.656;9.810;2022-12-10T11:56:52;101243.53;;;-0.52;87.25
4273;BME280;63887;53.656;9.810;2022-12-10T11:59:26;101244.38;;;-0.52;86.54
4273;BME280;63887;53.656;9.810;2022-12-10T12:02:08;101246.06;;;-0.45;87.18
4273;BME280;63887;53.656;9.810;2022-12-10T12:04:44;101240.97;;;-0.63;87.20
4273;BME280;63887;53.656;9.810;2022-12-10T12:07:18;101246.13;;;-0.80;87.38
4273;BME280;63887;53.656;9.810;2022-12-10T12:09:52;101244.41;;;-0.64;87.04
4273;BME280;63887;53.656;9.810;2022-12-10T12:12:24;101244.38;;;-0.61;87.02
4273;BME280;63887;53.656;9.810;2022-12-10T12:14:55;101238.41;;;-0.58;87.44
4273;BME280;63887;53.656;9.810;2022-12-10T12:17:23;101244.41;;;-0.44;85.55
4273;BME280;63887;53.656;9.810;2022-12-10T12:19:53;101240.97;;;-0.58;85.94
4273;BME280;63887;53.656;9.810;2022-12-10T12:22:22;101245.25;;;-0.56;85.74
4273;BME280;63887;53.656;9.810;2022-12-10T12:24:50;101248.69;;;-0.75;86.64
4273;BME280;63887;53.656;9.810;2022-12-10T12:27:21;101238.38;;;-0.55;86.53
4273;BME280;63887;53.656;9.810;2022-12-10T12:29:51;101243.53;;;-0.75;87.45
4273;BME280;63887;53.656;9.810;2022-12-10T12:32:25;101246.13;;;-0.77;87.54
4273;BME280;63887;53.656;9.810;2022-12-10T12:34:54;101247.84;;;-0.79;87.05
4273;BME280;63887;53.656;9.810;2022-12-10T12:37:23;101245.28;;;-1.00;88.17
4273;BME280;63887;53.656;9.810;2022-12-10T12:39:52;101245.25;;;-0.93;88.60
4273;BME280;63887;53.656;9.810;2022-12-10T12:42:22;101247.00;;;-0.82;87.91
4273;BME280;63887;53.656;9.810;2022-12-10T12:44:55;101239.25;;;-0.70;86.94
4273;BME280;63887;53.656;9.810;2022-12-10T12:47:26;101246.13;;;-0.71;86.95
4273;BME280;63887;53.656;9.810;2022-12-10T12:49:57;101249.56;;;-0.82;88.30
4273;BME280;63887;53.656;9.810;2022-12-10T12:52:26;101247.00;;;-0.59;86.79
4273;BME280;63887;53.656;9.810;2022-12-10T12:54:55;101237.47;;;-0.35;83.90
4273;BME280;63887;53.656;9.810;2022-12-10T12:57:23;101246.13;;;-0.69;86.30
4273;BME280;63887;53.656;9.810;2022-12-10T12:59:56;101249.56;;;-0.81;86.64
4273;BME280;63887;53.656;9.810;2022-12-10T13:02:39;101248.69;;;-0.68;86.16
4273;BME280;63887;53.656;9.810;2022-12-10T13:05:12;101249.56;;;-0.56;86.40
4273;BME280;63887;53.656;9.810;2022-12-10T13:07:39;101259.00;;;-0.69;87.05